sensor_id;sensor_type;location;lat;lon;timestamp;temperature;humidity
70107;DHT22;57473;37.508;15.080;2022-09-16T00:00:50;26.10;71.70
70107;DHT22;57473;37.508;15.080;2022-09-16T00:03:18;26.10;71.70
70107;DHT22;57473;37.508;15.080;2022-09-16T00:05:50;26.10;71.40
70107;DHT22;57473;37.508;15.080;2022-09-16T00:08:20;26.10;71.60
70107;DHT22;57473;37.508;15.080;2022-09-16T00:10:49;26.10;71.50
70107;DHT22;57473;37.508;15.080;2022-09-16T00:13:16;26.10;71.50
70107;DHT22;57473;37.508;15.080;2022-09-16T00:15:45;26.10;71.50
70107;DHT22;57473;37.508;15.080;2022-09-16T00:18:13;26.10;71.50
70107;DHT22;57473;37.508;15.080;2022-09-16T00:20:48;26.10;71.70
70107;DHT22;57473;37.508;15.080;2022-09-16T00:23:17;26.00;71.90
70107;DHT22;57473;37.508;15.080;2022-09-16T00:25:53;26.00;72.00
70107;DHT22;57473;37.508;15.080;2022-09-16T00:28:21;26.00;72.30
70107;DHT22;57473;37.508;15.080;2022-09-16T00:30:49;25.90;72.50
70107;DHT22;57473;37.508;15.080;2022-09-16T00:33:17;26.00;72.60
70107;DHT22;57473;37.508;15.080;2022-09-16T00:35:45;25.90;72.70
70107;DHT22;57473;37.508;15.080;2022-09-16T00:38:12;25.90;73.00
70107;DHT22;57473;37.508;15.080;2022-09-16T00:40:47;25.90;73.30
70107;DHT22;57473;37.508;15.080;2022-09-16T00:43:17;25.80;73.70
70107;DHT22;57473;37.508;15.080;2022-09-16T00:45:49;25.80;73.90
70107;DHT22;57473;37.508;15.080;2022-09-16T00:48:22;25.80;74.20
70107;DHT22;57473;37.508;15.080;2022-09-16T00:50:55;25.70;74.40
70107;DHT22;57473;37.508;15.080;2022-09-16T00:53:29;25.70;74.60
70107;DHT22;57473;37.508;15.080;2022-09-16T00:56:01;25.60;75.00
70107;DHT22;57473;37.508;15.080;2022-09-16T01:01:22;25.50;75.30
70107;DHT22;57473;37.508;15.080;2022-09-16T01:03:51;25.50;75.30
70107;DHT22;57473;37.508;15.080;2022-09-16T01:06:20;25.50;75.40
70107;DHT22;57473;37.508;15.080;2022-09-16T01:08:50;25.40;75.30
70107;DHT22;57473;37.508;15.080;2022-09-16T01:11:17;25.40;75.40
70107;DHT22;57473;37.508;15.080;2022-09-16T01:13:47;25.40;75.30
70107;DHT22;57473;37.508;15.080;2022-09-16T01:16:32;25.40;75.30
70107;DHT22;57473;37.508;15.080;2022-09-16T01:19:31;25.40;75.30
70107;DHT22;57473;37.508;15.080;2022-09-16T01:22:20;25.30;75.10
70107;DHT22;57473;37.508;15.080;2022-09-16T01:30:49;25.30;74.90
70107;DHT22;57473;37.508;15.080;2022-09-16T01:46:17;25.20;75.10
70107;DHT22;57473;37.508;15.080;2022-09-16T01:51:40;25.10;75.00
70107;DHT22;57473;37.508;15.080;2022-09-16T01:54:27;25.20;74.70
70107;DHT22;57473;37.508;15.080;2022-09-16T01:57:12;25.20;74.60
70107;DHT22;57473;37.508;15.080;2022-09-16T01:59:50;25.20;74.30
70107;DHT22;57473;37.508;15.080;2022-09-16T02:04:56;25.20;74.00
70107;DHT22;57473;37.508;15.080;2022-09-16T02:07:32;25.20;74.10
70107;DHT22;57473;37.508;15.080;2022-09-16T02:10:09;25.20;74.00
70107;DHT22;57473;37.508;15.080;2022-09-16T02:12:40;25.10;74.20
70107;DHT22;57473;37.508;15.080;2022-09-16T02:15:10;25.10;74.20
70107;DHT22;57473;37.508;15.080;2022-09-16T02:17:43;25.00;74.30
70107;DHT22;57473;37.508;15.080;2022-09-16T02:20:14;25.00;74.60
70107;DHT22;57473;37.508;15.080;2022-09-16T02:22:48;24.90;74.60
70107;DHT22;57473;37.508;15.080;2022-09-16T02:25:17;25.00;74.50
70107;DHT22;57473;37.508;15.080;2022-09-16T02:27:46;24.90;74.70
70107;DHT22;57473;37.508;15.080;2022-09-16T02:30:17;24.90;75.10
70107;DHT22;57473;37.508;15.080;2022-09-16T02:32:48;24.90;74.50
70107;DHT22;57473;37.508;15.080;2022-09-16T02:35:17;24.90;74.60
70107;DHT22;57473;37.508;15.080;2022-09-16T02:37:49;24.90;74.80
70107;DHT22;57473;37.508;15.080;2022-09-16T02:40:51;24.80;74.80
70107;DHT22;57473;37.508;15.080;2022-09-16T02:43:19;24.80;74.80
70107;DHT22;57473;37.508;15.080;2022-09-16T02:56:36;24.80;74.80
70107;DHT22;57473;37.508;15.080;2022-09-16T02:59:07;24.80;75.00
70107;DHT22;57473;37.508;15.080;2022-09-16T03:01:39;24.80;75.00
70107;DHT22;57473;37.508;15.080;2022-09-16T03:04:08;24.80;74.60
70107;DHT22;57473;37.508;15.080;2022-09-16T03:06:36;24.80;74.70
70107;DHT22;57473;37.508;15.080;2022-09-16T03:09:07;24.80;74.50
70107;DHT22;57473;37.508;15.080;2022-09-16T03:11:59;24.80;74.70
70107;DHT22;57473;37.508;15.080;2022-09-16T03:30:24;24.70;74.60
70107;DHT22;57473;37.508;15.080;2022-09-16T03:32:59;24.70;74.70
70107;DHT22;57473;37.508;15.080;2022-09-16T03:35:40;24.70;74.90
70107;DHT22;57473;37.508;15.080;2022-09-16T03:38:10;24.60;75.10
70107;DHT22;57473;37.508;15.080;2022-09-16T03:40:38;24.60;75.00
70107;DHT22;57473;37.508;15.080;2022-09-16T03:43:13;24.60;75.10
70107;DHT22;57473;37.508;15.080;2022-09-16T03:45:42;24.50;75.10
70107;DHT22;57473;37.508;15.080;2022-09-16T03:48:11;24.50;74.90
70107;DHT22;57473;37.508;15.080;2022-09-16T03:50:38;24.50;75.00
70107;DHT22;57473;37.508;15.080;2022-09-16T03:53:06;24.40;75.10
70107;DHT22;57473;37.508;15.080;2022-09-16T03:55:33;24.40;75.30
70107;DHT22;57473;37.508;15.080;2022-09-16T03:58:00;24.30;75.20
70107;DHT22;57473;37.508;15.080;2022-09-16T04:00:28;24.30;74.80
70107;DHT22;57473;37.508;15.080;2022-09-16T04:02:58;24.30;74.60
70107;DHT22;57473;37.508;15.080;2022-09-16T04:05:26;24.30;74.50
70107;DHT22;57473;37.508;15.080;2022-09-16T04:07:53;24.30;73.50
70107;DHT22;57473;37.508;15.080;2022-09-16T04:10:21;24.30;73.00
70107;DHT22;57473;37.508;15.080;2022-09-16T04:12:48;24.30;72.80
70107;DHT22;57473;37.508;15.080;2022-09-16T04:15:15;24.30;72.30
70107;DHT22;57473;37.508;15.080;2022-09-16T04:17:42;24.30;72.20
70107;DHT22;57473;37.508;15.080;2022-09-16T04:20:09;24.30;71.70
70107;DHT22;57473;37.508;15.080;2022-09-16T04:22:37;24.30;71.70
70107;DHT22;57473;37.508;15.080;2022-09-16T04:25:04;24.40;71.30
70107;DHT22;57473;37.508;15.080;2022-09-16T04:27:31;24.40;71.20
70107;DHT22;57473;37.508;15.080;2022-09-16T04:29:59;24.30;71.10
70107;DHT22;57473;37.508;15.080;2022-09-16T04:32:26;24.40;70.90
70107;DHT22;57473;37.508;15.080;2022-09-16T04:34:53;24.40;71.00
70107;DHT22;57473;37.508;15.080;2022-09-16T04:37:21;24.40;70.80
70107;DHT22;57473;37.508;15.080;2022-09-16T04:39:48;24.40;70.70
70107;DHT22;57473;37.508;15.080;2022-09-16T04:42:15;24.50;70.40
70107;DHT22;57473;37.508;15.080;2022-09-16T04:44:43;24.50;70.30
70107;DHT22;57473;37.508;15.080;2022-09-16T04:47:13;24.50;70.40
70107;DHT22;57473;37.508;15.080;2022-09-16T04:49:41;24.50;70.50
70107;DHT22;57473;37.508;15.080;2022-09-16T04:52:08;24.50;70.50
70107;DHT22;57473;37.508;15.080;2022-09-16T04:54:37;24.50;70.00
70107;DHT22;57473;37.508;15.080;2022-09-16T04:57:04;24.50;69.60
70107;DHT22;57473;37.508;15.080;2022-09-16T04:59:31;24.50;69.20
70107;DHT22;57473;37.508;15.080;2022-09-16T05:01:58;24.60;67.90
70107;DHT22;57473;37.508;15.080;2022-09-16T05:04:27;24.80;67.30
70107;DHT22;57473;37.508;15.080;2022-09-16T05:06:54;24.80;66.80
70107;DHT22;57473;37.508;15.080;2022-09-16T05:09:21;24.90;66.80
70107;DHT22;57473;37.508;15.080;2022-09-16T05:11:48;24.80;67.10
70107;DHT22;57473;37.508;15.080;2022-09-16T05:14:16;24.90;66.90
70107;DHT22;57473;37.508;15.080;2022-09-16T05:16:44;24.90;67.00
70107;DHT22;57473;37.508;15.080;2022-09-16T05:19:13;24.90;67.10
70107;DHT22;57473;37.508;15.080;2022-09-16T05:21:40;24.90;67.20
70107;DHT22;57473;37.508;15.080;2022-09-16T05:24:09;24.90;67.30
70107;DHT22;57473;37.508;15.080;2022-09-16T05:26:39;25.00;67.30
70107;DHT22;57473;37.508;15.080;2022-09-16T05:29:11;25.10;66.90
70107;DHT22;57473;37.508;15.080;2022-09-16T05:31:40;25.10;66.80
70107;DHT22;57473;37.508;15.080;2022-09-16T05:34:13;25.20;66.50
70107;DHT22;57473;37.508;15.080;2022-09-16T05:36:42;25.30;66.40
70107;DHT22;57473;37.508;15.080;2022-09-16T05:39:10;25.40;65.70
70107;DHT22;57473;37.508;15.080;2022-09-16T05:41:59;25.40;65.10
70107;DHT22;57473;37.508;15.080;2022-09-16T05:44:27;25.60;64.70
70107;DHT22;57473;37.508;15.080;2022-09-16T05:46:55;25.70;63.90
70107;DHT22;57473;37.508;15.080;2022-09-16T05:49:23;25.80;63.20
70107;DHT22;57473;37.508;15.080;2022-09-16T05:51:50;26.00;62.70
70107;DHT22;57473;37.508;15.080;2022-09-16T05:54:19;26.00;62.30
70107;DHT22;57473;37.508;15.080;2022-09-16T05:56:46;26.20;61.90
70107;DHT22;57473;37.508;15.080;2022-09-16T05:59:15;26.30;61.30
70107;DHT22;57473;37.508;15.080;2022-09-16T06:01:43;26.40;60.30
70107;DHT22;57473;37.508;15.080;2022-09-16T06:04:13;26.60;59.80
70107;DHT22;57473;37.508;15.080;2022-09-16T06:06:43;26.70;59.10
70107;DHT22;57473;37.508;15.080;2022-09-16T06:09:20;26.80;57.70
70107;DHT22;57473;37.508;15.080;2022-09-16T06:11:51;26.90;57.40
70107;DHT22;57473;37.508;15.080;2022-09-16T06:14:23;27.10;56.90
70107;DHT22;57473;37.508;15.080;2022-09-16T06:16:51;27.20;56.40
70107;DHT22;57473;37.508;15.080;2022-09-16T06:19:18;27.20;56.00
70107;DHT22;57473;37.508;15.080;2022-09-16T06:21:46;27.30;56.20
70107;DHT22;57473;37.508;15.080;2022-09-16T06:24:15;27.30;55.30
70107;DHT22;57473;37.508;15.080;2022-09-16T06:26:44;27.40;54.90
70107;DHT22;57473;37.508;15.080;2022-09-16T06:29:12;27.50;55.00
70107;DHT22;57473;37.508;15.080;2022-09-16T06:31:41;27.60;54.60
70107;DHT22;57473;37.508;15.080;2022-09-16T06:34:13;27.70;54.40
70107;DHT22;57473;37.508;15.080;2022-09-16T06:36:41;27.70;54.30
70107;DHT22;57473;37.508;15.080;2022-09-16T06:39:12;27.80;53.60
70107;DHT22;57473;37.508;15.080;2022-09-16T06:41:40;27.80;53.30
70107;DHT22;57473;37.508;15.080;2022-09-16T06:44:12;27.80;52.10
70107;DHT22;57473;37.508;15.080;2022-09-16T06:46:39;27.80;52.10
70107;DHT22;57473;37.508;15.080;2022-09-16T06:49:06;27.80;51.70
70107;DHT22;57473;37.508;15.080;2022-09-16T06:51:37;27.70;51.40
70107;DHT22;57473;37.508;15.080;2022-09-16T06:54:06;27.70;51.20
70107;DHT22;57473;37.508;15.080;2022-09-16T06:56:34;27.60;51.30
70107;DHT22;57473;37.508;15.080;2022-09-16T06:59:06;27.70;51.40
70107;DHT22;57473;37.508;15.080;2022-09-16T07:01:33;27.70;51.00
70107;DHT22;57473;37.508;15.080;2022-09-16T07:04:07;27.80;50.30
70107;DHT22;57473;37.508;15.080;2022-09-16T07:06:37;28.00;50.10
70107;DHT22;57473;37.508;15.080;2022-09-16T07:09:24;28.20;49.00
70107;DHT22;57473;37.508;15.080;2022-09-16T07:11:52;28.40;48.10
70107;DHT22;57473;37.508;15.080;2022-09-16T07:14:19;28.60;47.90
70107;DHT22;57473;37.508;15.080;2022-09-16T07:16:46;28.70;47.30
70107;DHT22;57473;37.508;15.080;2022-09-16T07:19:14;28.80;46.80
70107;DHT22;57473;37.508;15.080;2022-09-16T07:21:41;29.00;46.20
70107;DHT22;57473;37.508;15.080;2022-09-16T07:24:10;29.10;45.60
70107;DHT22;57473;37.508;15.080;2022-09-16T07:26:39;29.20;45.30
70107;DHT22;57473;37.508;15.080;2022-09-16T07:29:11;29.30;44.90
70107;DHT22;57473;37.508;15.080;2022-09-16T07:31:38;29.30;43.90
70107;DHT22;57473;37.508;15.080;2022-09-16T07:34:07;29.40;43.40
70107;DHT22;57473;37.508;15.080;2022-09-16T07:36:39;29.50;43.50
70107;DHT22;57473;37.508;15.080;2022-09-16T07:39:07;29.60;43.30
70107;DHT22;57473;37.508;15.080;2022-09-16T07:41:41;29.80;43.00
70107;DHT22;57473;37.508;15.080;2022-09-16T07:44:13;29.90;42.80
70107;DHT22;57473;37.508;15.080;2022-09-16T07:46:42;30.00;41.80
70107;DHT22;57473;37.508;15.080;2022-09-16T07:49:11;30.20;41.30
70107;DHT22;57473;37.508;15.080;2022-09-16T07:51:40;30.30;41.60
70107;DHT22;57473;37.508;15.080;2022-09-16T07:54:09;30.40;41.20
70107;DHT22;57473;37.508;15.080;2022-09-16T07:56:38;30.50;41.20
70107;DHT22;57473;37.508;15.080;2022-09-16T07:59:13;30.70;40.50
70107;DHT22;57473;37.508;15.080;2022-09-16T08:01:45;30.80;39.60
70107;DHT22;57473;37.508;15.080;2022-09-16T08:04:13;31.00;39.20
70107;DHT22;57473;37.508;15.080;2022-09-16T08:06:40;31.10;39.10
70107;DHT22;57473;37.508;15.080;2022-09-16T08:09:07;31.20;39.40
70107;DHT22;57473;37.508;15.080;2022-09-16T08:11:54;31.30;39.10
70107;DHT22;57473;37.508;15.080;2022-09-16T08:14:22;31.40;39.00
70107;DHT22;57473;37.508;15.080;2022-09-16T08:16:49;31.50;38.90
70107;DHT22;57473;37.508;15.080;2022-09-16T08:19:17;31.70;38.40
70107;DHT22;57473;37.508;15.080;2022-09-16T08:21:46;31.80;39.20
70107;DHT22;57473;37.508;15.080;2022-09-16T08:24:14;32.00;38.30
70107;DHT22;57473;37.508;15.080;2022-09-16T08:26:42;32.10;37.60
70107;DHT22;57473;37.508;15.080;2022-09-16T08:29:09;32.30;37.70
70107;DHT22;57473;37.508;15.080;2022-09-16T08:31:37;32.50;37.30
70107;DHT22;57473;37.508;15.080;2022-09-16T08:34:04;32.60;37.20
70107;DHT22;57473;37.508;15.080;2022-09-16T08:36:32;32.70;36.50
70107;DHT22;57473;37.508;15.080;2022-09-16T08:39:00;32.70;36.20
70107;DHT22;57473;37.508;15.080;2022-09-16T08:50:14;32.70;36.20
70107;DHT22;57473;37.508;15.080;2022-09-16T08:52:43;32.60;36.60
70107;DHT22;57473;37.508;15.080;2022-09-16T08:55:19;32.70;36.50
70107;DHT22;57473;37.508;15.080;2022-09-16T09:00:39;32.90;37.40
70107;DHT22;57473;37.508;15.080;2022-09-16T09:05:56;33.00;38.00
70107;DHT22;57473;37.508;15.080;2022-09-16T09:13:58;33.20;38.50
70107;DHT22;57473;37.508;15.080;2022-09-16T09:25:21;32.90;41.10
70107;DHT22;57473;37.508;15.080;2022-09-16T09:31:07;32.80;42.10
70107;DHT22;57473;37.508;15.080;2022-09-16T09:36:47;32.90;42.40
70107;DHT22;57473;37.508;15.080;2022-09-16T09:39:25;32.90;42.30
70107;DHT22;57473;37.508;15.080;2022-09-16T09:44:55;33.10;41.70
70107;DHT22;57473;37.508;15.080;2022-09-16T09:47:38;33.20;41.40
70107;DHT22;57473;37.508;15.080;2022-09-16T09:50:27;33.30;41.30
70107;DHT22;57473;37.508;15.080;2022-09-16T09:55:40;33.30;39.90
70107;DHT22;57473;37.508;15.080;2022-09-16T09:58:22;33.20;40.90
70107;DHT22;57473;37.508;15.080;2022-09-16T10:00:53;33.10;40.70
70107;DHT22;57473;37.508;15.080;2022-09-16T10:03:25;33.20;40.30
70107;DHT22;57473;37.508;15.080;2022-09-16T10:05:52;33.20;40.70
70107;DHT22;57473;37.508;15.080;2022-09-16T10:10:57;33.30;41.90
70107;DHT22;57473;37.508;15.080;2022-09-16T10:13:27;33.30;41.60
70107;DHT22;57473;37.508;15.080;2022-09-16T10:18:36;33.30;41.20
70107;DHT22;57473;37.508;15.080;2022-09-16T10:21:08;33.30;41.40
70107;DHT22;57473;37.508;15.080;2022-09-16T10:23:37;33.40;41.50
70107;DHT22;57473;37.508;15.080;2022-09-16T10:31:27;33.10;42.20
70107;DHT22;57473;37.508;15.080;2022-09-16T10:34:02;33.10;41.60
70107;DHT22;57473;37.508;15.080;2022-09-16T10:36:34;33.30;41.70
70107;DHT22;57473;37.508;15.080;2022-09-16T10:39:03;33.30;40.90
70107;DHT22;57473;37.508;15.080;2022-09-16T10:44:12;33.20;41.50
70107;DHT22;57473;37.508;15.080;2022-09-16T10:49:33;33.30;39.80
70107;DHT22;57473;37.508;15.080;2022-09-16T10:52:29;33.40;40.10
70107;DHT22;57473;37.508;15.080;2022-09-16T10:55:08;33.50;41.60
70107;DHT22;57473;37.508;15.080;2022-09-16T10:57:35;33.80;42.70
70107;DHT22;57473;37.508;15.080;2022-09-16T11:00:16;33.90;44.30
70107;DHT22;57473;37.508;15.080;2022-09-16T11:03:23;34.20;43.80
70107;DHT22;57473;37.508;15.080;2022-09-16T11:09:06;35.30;43.80
70107;DHT22;57473;37.508;15.080;2022-09-16T11:20:11;35.80;42.90
70107;DHT22;57473;37.508;15.080;2022-09-16T11:25:51;36.10;43.00
70107;DHT22;57473;37.508;15.080;2022-09-16T11:28:37;36.20;42.80
70107;DHT22;57473;37.508;15.080;2022-09-16T11:36:33;37.50;40.50
70107;DHT22;57473;37.508;15.080;2022-09-16T11:42:04;37.40;40.50
70107;DHT22;57473;37.508;15.080;2022-09-16T11:55:46;36.60;42.50
70107;DHT22;57473;37.508;15.080;2022-09-16T11:59:08;36.70;42.90
70107;DHT22;57473;37.508;15.080;2022-09-16T12:04:01;36.50;43.40
70107;DHT22;57473;37.508;15.080;2022-09-16T12:06:39;36.20;44.30
70107;DHT22;57473;37.508;15.080;2022-09-16T12:09:16;35.30;46.10
70107;DHT22;57473;37.508;15.080;2022-09-16T12:11:52;34.80;47.90
70107;DHT22;57473;37.508;15.080;2022-09-16T12:14:35;34.40;49.20
70107;DHT22;57473;37.508;15.080;2022-09-16T12:17:27;34.50;49.70
70107;DHT22;57473;37.508;15.080;2022-09-16T12:20:15;35.10;48.70
70107;DHT22;57473;37.508;15.080;2022-09-16T12:23:21;35.80;47.40
70107;DHT22;57473;37.508;15.080;2022-09-16T12:31:09;36.90;45.90
70107;DHT22;57473;37.508;15.080;2022-09-16T12:34:07;37.30;45.40
70107;DHT22;57473;37.508;15.080;2022-09-16T12:36:35;37.40;45.10
70107;DHT22;57473;37.508;15.080;2022-09-16T12:39:04;37.10;45.70
70107;DHT22;57473;37.508;15.080;2022-09-16T12:41:41;37.00;46.10
70107;DHT22;57473;37.508;15.080;2022-09-16T12:50:17;36.40;47.50
70107;DHT22;57473;37.508;15.080;2022-09-16T12:58:35;37.90;43.40
70107;DHT22;57473;37.508;15.080;2022-09-16T13:01:12;38.60;42.40
70107;DHT22;57473;37.508;15.080;2022-09-16T13:03:47;38.70;42.20
70107;DHT22;57473;37.508;15.080;2022-09-16T13:06:29;38.80;41.40
70107;DHT22;57473;37.508;15.080;2022-09-16T13:09:22;39.20;41.10
70107;DHT22;57473;37.508;15.080;2022-09-16T13:12:03;39.40;39.90
70107;DHT22;57473;37.508;15.080;2022-09-16T13:15:04;39.50;39.50
70107;DHT22;57473;37.508;15.080;2022-09-16T13:17:35;39.30;40.50
70107;DHT22;57473;37.508;15.080;2022-09-16T13:20:12;39.40;40.90
70107;DHT22;57473;37.508;15.080;2022-09-16T13:25:34;39.40;41.10
70107;DHT22;57473;37.508;15.080;2022-09-16T13:28:38;39.60;41.00
70107;DHT22;57473;37.508;15.080;2022-09-16T13:31:18;39.60;40.80
70107;DHT22;57473;37.508;15.080;2022-09-16T13:34:00;39.70;40.30
70107;DHT22;57473;37.508;15.080;2022-09-16T13:36:31;39.40;41.50
70107;DHT22;57473;37.508;15.080;2022-09-16T13:39:00;39.00;42.00
70107;DHT22;57473;37.508;15.080;2022-09-16T13:41:42;38.40;42.90
70107;DHT22;57473;37.508;15.080;2022-09-16T13:44:29;38.00;43.70
70107;DHT22;57473;37.508;15.080;2022-09-16T13:49:42;36.10;46.90
70107;DHT22;57473;37.508;15.080;2022-09-16T13:52:26;35.00;49.30
70107;DHT22;57473;37.508;15.080;2022-09-16T13:54:55;33.90;51.50
70107;DHT22;57473;37.508;15.080;2022-09-16T14:00:56;32.90;53.20
70107;DHT22;57473;37.508;15.080;2022-09-16T14:14:32;31.90;55.30
70107;DHT22;57473;37.508;15.080;2022-09-16T14:17:22;31.80;55.60
70107;DHT22;57473;37.508;15.080;2022-09-16T14:19:55;31.70;55.50
70107;DHT22;57473;37.508;15.080;2022-09-16T14:22:24;31.70;55.40
70107;DHT22;57473;37.508;15.080;2022-09-16T14:24:54;31.80;55.10
70107;DHT22;57473;37.508;15.080;2022-09-16T14:27:34;31.70;55.00
70107;DHT22;57473;37.508;15.080;2022-09-16T14:30:16;31.70;54.80
70107;DHT22;57473;37.508;15.080;2022-09-16T14:32:45;31.50;55.00
70107;DHT22;57473;37.508;15.080;2022-09-16T14:35:24;31.40;55.10
70107;DHT22;57473;37.508;15.080;2022-09-16T14:38:02;31.40;55.40
70107;DHT22;57473;37.508;15.080;2022-09-16T14:40:40;31.40;55.20
70107;DHT22;57473;37.508;15.080;2022-09-16T14:43:08;31.40;55.00
70107;DHT22;57473;37.508;15.080;2022-09-16T14:45:44;31.40;54.60
70107;DHT22;57473;37.508;15.080;2022-09-16T14:48:14;31.40;54.50
70107;DHT22;57473;37.508;15.080;2022-09-16T14:50:46;31.40;54.50
70107;DHT22;57473;37.508;15.080;2022-09-16T14:53:27;31.40;54.50
70107;DHT22;57473;37.508;15.080;2022-09-16T14:56:03;31.40;54.40
70107;DHT22;57473;37.508;15.080;2022-09-16T14:58:31;31.40;54.10
70107;DHT22;57473;37.508;15.080;2022-09-16T15:01:13;31.50;53.70
70107;DHT22;57473;37.508;15.080;2022-09-16T15:06:24;31.40;53.60
70107;DHT22;57473;37.508;15.080;2022-09-16T15:08:58;31.40;53.50
70107;DHT22;57473;37.508;15.080;2022-09-16T15:11:29;31.30;53.40
70107;DHT22;57473;37.508;15.080;2022-09-16T15:14:19;31.40;53.40
70107;DHT22;57473;37.508;15.080;2022-09-16T15:16:54;31.40;53.10
70107;DHT22;57473;37.508;15.080;2022-09-16T15:19:46;31.40;52.80
70107;DHT22;57473;37.508;15.080;2022-09-16T15:22:14;31.30;53.00
70107;DHT22;57473;37.508;15.080;2022-09-16T15:24:42;31.30;53.30
70107;DHT22;57473;37.508;15.080;2022-09-16T15:27:09;31.20;53.20
70107;DHT22;57473;37.508;15.080;2022-09-16T15:29:47;31.20;53.10
70107;DHT22;57473;37.508;15.080;2022-09-16T15:32:20;31.10;53.20
70107;DHT22;57473;37.508;15.080;2022-09-16T15:37:38;31.10;53.80
70107;DHT22;57473;37.508;15.080;2022-09-16T15:40:20;31.10;53.90
70107;DHT22;57473;37.508;15.080;2022-09-16T15:43:03;31.00;53.80
70107;DHT22;57473;37.508;15.080;2022-09-16T15:45:36;31.10;53.60
70107;DHT22;57473;37.508;15.080;2022-09-16T15:48:16;31.00;53.70
70107;DHT22;57473;37.508;15.080;2022-09-16T15:51:06;31.00;53.90
70107;DHT22;57473;37.508;15.080;2022-09-16T15:53:42;31.00;53.90
70107;DHT22;57473;37.508;15.080;2022-09-16T15:58:46;31.00;53.80
70107;DHT22;57473;37.508;15.080;2022-09-16T16:01:35;31.00;53.80
70107;DHT22;57473;37.508;15.080;2022-09-16T16:04:06;31.00;53.70
70107;DHT22;57473;37.508;15.080;2022-09-16T16:09:29;31.00;53.70
70107;DHT22;57473;37.508;15.080;2022-09-16T16:12:05;30.90;53.70
70107;DHT22;57473;37.508;15.080;2022-09-16T16:14:34;30.90;53.60
70107;DHT22;57473;37.508;15.080;2022-09-16T16:17:06;30.90;53.60
70107;DHT22;57473;37.508;15.080;2022-09-16T16:19:47;30.80;53.80
70107;DHT22;57473;37.508;15.080;2022-09-16T16:22:17;30.80;53.70
70107;DHT22;57473;37.508;15.080;2022-09-16T16:24:45;30.70;53.90
70107;DHT22;57473;37.508;15.080;2022-09-16T16:27:12;30.60;54.20
70107;DHT22;57473;37.508;15.080;2022-09-16T16:29:39;30.50;54.40
70107;DHT22;57473;37.508;15.080;2022-09-16T16:32:13;30.50;54.30
70107;DHT22;57473;37.508;15.080;2022-09-16T16:34:42;30.40;54.40
70107;DHT22;57473;37.508;15.080;2022-09-16T16:37:11;30.40;54.60
70107;DHT22;57473;37.508;15.080;2022-09-16T16:40:04;30.30;55.00
70107;DHT22;57473;37.508;15.080;2022-09-16T16:42:32;30.20;54.90
70107;DHT22;57473;37.508;15.080;2022-09-16T16:44:59;30.10;55.50
70107;DHT22;57473;37.508;15.080;2022-09-16T16:47:27;30.10;55.30
70107;DHT22;57473;37.508;15.080;2022-09-16T16:49:54;30.00;55.20
70107;DHT22;57473;37.508;15.080;2022-09-16T16:52:22;30.00;55.40
70107;DHT22;57473;37.508;15.080;2022-09-16T16:54:49;30.00;55.70
70107;DHT22;57473;37.508;15.080;2022-09-16T16:57:19;30.00;55.80
70107;DHT22;57473;37.508;15.080;2022-09-16T16:59:46;29.90;55.80
70107;DHT22;57473;37.508;15.080;2022-09-16T17:02:14;29.90;55.60
70107;DHT22;57473;37.508;15.080;2022-09-16T17:04:41;29.80;55.80
70107;DHT22;57473;37.508;15.080;2022-09-16T17:07:09;29.70;56.00
70107;DHT22;57473;37.508;15.080;2022-09-16T17:09:54;29.70;56.10
70107;DHT22;57473;37.508;15.080;2022-09-16T17:12:24;29.60;56.70
70107;DHT22;57473;37.508;15.080;2022-09-16T17:14:51;29.60;56.60
70107;DHT22;57473;37.508;15.080;2022-09-16T17:17:18;29.50;56.80
70107;DHT22;57473;37.508;15.080;2022-09-16T17:19:45;29.50;56.70
70107;DHT22;57473;37.508;15.080;2022-09-16T17:22:13;29.50;57.20
70107;DHT22;57473;37.508;15.080;2022-09-16T17:24:40;29.50;56.80
70107;DHT22;57473;37.508;15.080;2022-09-16T17:27:08;29.40;56.70
70107;DHT22;57473;37.508;15.080;2022-09-16T17:29:35;29.30;57.00
70107;DHT22;57473;37.508;15.080;2022-09-16T17:32:02;29.30;57.10
70107;DHT22;57473;37.508;15.080;2022-09-16T17:34:29;29.20;57.60
70107;DHT22;57473;37.508;15.080;2022-09-16T17:36:57;29.20;57.50
70107;DHT22;57473;37.508;15.080;2022-09-16T17:39:24;29.20;57.30
70107;DHT22;57473;37.508;15.080;2022-09-16T17:41:52;29.20;57.40
70107;DHT22;57473;37.508;15.080;2022-09-16T17:44:22;29.10;57.30
70107;DHT22;57473;37.508;15.080;2022-09-16T17:46:50;29.10;57.30
70107;DHT22;57473;37.508;15.080;2022-09-16T17:49:22;29.10;57.30
70107;DHT22;57473;37.508;15.080;2022-09-16T17:51:50;29.10;57.50
70107;DHT22;57473;37.508;15.080;2022-09-16T17:54:18;29.10;57.50
70107;DHT22;57473;37.508;15.080;2022-09-16T17:56:45;29.10;57.70
70107;DHT22;57473;37.508;15.080;2022-09-16T17:59:15;29.00;57.60
70107;DHT22;57473;37.508;15.080;2022-09-16T18:01:43;29.00;57.60
70107;DHT22;57473;37.508;15.080;2022-09-16T18:04:10;29.00;57.70
70107;DHT22;57473;37.508;15.080;2022-09-16T18:06:43;29.00;57.70
70107;DHT22;57473;37.508;15.080;2022-09-16T18:09:11;29.00;57.50
70107;DHT22;57473;37.508;15.080;2022-09-16T18:11:39;28.90;57.80
70107;DHT22;57473;37.508;15.080;2022-09-16T18:14:09;28.90;58.20
70107;DHT22;57473;37.508;15.080;2022-09-16T18:16:37;28.80;57.90
70107;DHT22;57473;37.508;15.080;2022-09-16T18:19:05;28.80;58.00
70107;DHT22;57473;37.508;15.080;2022-09-16T18:21:32;28.80;58.30
70107;DHT22;57473;37.508;15.080;2022-09-16T18:24:03;28.80;58.40
70107;DHT22;57473;37.508;15.080;2022-09-16T18:26:30;28.70;58.10
70107;DHT22;57473;37.508;15.080;2022-09-16T18:29:00;28.70;58.00
70107;DHT22;57473;37.508;15.080;2022-09-16T18:31:39;28.70;57.70
70107;DHT22;57473;37.508;15.080;2022-09-16T18:34:07;28.70;57.80
70107;DHT22;57473;37.508;15.080;2022-09-16T18:36:35;28.70;57.90
70107;DHT22;57473;37.508;15.080;2022-09-16T18:39:04;28.70;58.10
70107;DHT22;57473;37.508;15.080;2022-09-16T18:41:37;28.70;58.30
70107;DHT22;57473;37.508;15.080;2022-09-16T18:44:09;28.80;58.10
70107;DHT22;57473;37.508;15.080;2022-09-16T18:46:37;28.80;58.10
70107;DHT22;57473;37.508;15.080;2022-09-16T18:49:05;28.70;58.00
70107;DHT22;57473;37.508;15.080;2022-09-16T18:51:41;28.70;57.70
70107;DHT22;57473;37.508;15.080;2022-09-16T18:54:16;28.70;57.80
70107;DHT22;57473;37.508;15.080;2022-09-16T18:56:45;28.70;57.90
70107;DHT22;57473;37.508;15.080;2022-09-16T18:59:14;28.60;57.90
70107;DHT22;57473;37.508;15.080;2022-09-16T19:01:51;28.60;57.90